createdAt,value
2023-05-09T00:00:51.037Z,101135.78
2023-05-09T00:02:55.612Z,101134.94
2023-05-09T00:04:57.589Z,101133.09
2023-05-09T00:06:59.577Z,101130.75
2023-05-09T00:09:01.561Z,101128.78
2023-05-09T00:11:05.733Z,101129.00
2023-05-09T00:13:08.149Z,101115.22
2023-05-09T00:15:10.862Z,101113.44
2023-05-09T00:17:14.771Z,101110.91
2023-05-09T00:19:16.758Z,101110.94
2023-05-09T00:21:18.712Z,101103.13
2023-05-09T00:23:22.011Z,101104.81
2023-05-09T00:25:23.968Z,101099.66
2023-05-09T00:27:28.945Z,101106.69
2023-05-09T00:29:35.774Z,101095.50
2023-05-09T00:31:37.763Z,101099.75
2023-05-09T00:33:39.983Z,101095.31
2023-05-09T00:35:41.713Z,101104.00
2023-05-09T00:37:43.566Z,101098.59
2023-05-09T00:39:46.395Z,101090.06
2023-05-09T00:41:48.454Z,101089.22
2023-05-09T00:43:50.549Z,101082.38
2023-05-09T00:45:55.029Z,101083.31
2023-05-09T00:47:57.772Z,101084.19
2023-05-09T00:49:59.928Z,101082.44
2023-05-09T00:52:02.925Z,101080.69
2023-05-09T00:54:07.628Z,101070.28
2023-05-09T00:56:12.450Z,101070.28
2023-05-09T00:58:14.543Z,101060.94
2023-05-09T01:00:18.865Z,101058.28
2023-05-09T01:02:21.312Z,101059.06
2023-05-09T01:04:23.978Z,101067.03
2023-05-09T01:06:39.977Z,101065.38
2023-05-09T01:08:59.797Z,101062.78
2023-05-09T01:11:10.426Z,101059.31
2023-05-09T01:13:28.439Z,101049.84
2023-05-09T01:15:39.599Z,101047.19
2023-05-09T01:17:50.368Z,101049.78
2023-05-09T01:19:56.839Z,101040.97
2023-05-09T01:22:02.387Z,101044.50
2023-05-09T01:24:08.557Z,101047.00
2023-05-09T01:26:19.304Z,101041.09
2023-05-09T01:28:33.567Z,101034.97
2023-05-09T01:30:37.916Z,101044.47
2023-05-09T01:32:42.907Z,101044.47
2023-05-09T01:34:47.907Z,101035.84
2023-05-09T01:36:51.866Z,101034.09
2023-05-09T01:38:54.997Z,101031.38
2023-05-09T01:40:59.841Z,101033.16
2023-05-09T01:43:07.325Z,101026.94
2023-05-09T01:45:11.556Z,101032.22
2023-05-09T01:47:16.791Z,101033.09
2023-05-09T01:49:20.659Z,101034.78
2023-05-09T01:51:24.362Z,101029.72
2023-05-09T01:53:32.910Z,101031.44
2023-05-09T01:55:36.862Z,101022.81
2023-05-09T01:57:42.207Z,101022.00
2023-05-09T01:59:46.225Z,101020.22
2023-05-09T02:01:49.300Z,101015.91
2023-05-09T02:03:53.650Z,101015.97
2023-05-09T02:05:57.158Z,101012.47
2023-05-09T02:08:00.456Z,101009.94
2023-05-09T02:10:03.368Z,101003.84
2023-05-09T02:12:05.644Z,101007.09
2023-05-09T02:14:08.096Z,101009.00
2023-05-09T02:16:10.495Z,101003.88
2023-05-09T02:18:13.068Z,101005.59
2023-05-09T02:20:15.452Z,101013.22
2023-05-09T02:22:17.595Z,101003.81
2023-05-09T02:24:19.497Z,101008.97
2023-05-09T02:26:22.866Z,101007.28
2023-05-09T02:28:27.658Z,101003.78
2023-05-09T02:30:36.472Z,101006.47
2023-05-09T02:32:40.872Z,101011.63
2023-05-09T02:34:44.064Z,101007.31
2023-05-09T02:36:49.753Z,100999.59
2023-05-09T02:38:51.985Z,101003.72
2023-05-09T02:40:53.892Z,101011.56
2023-05-09T02:42:56.614Z,101010.72
2023-05-09T02:44:58.472Z,101010.72
2023-05-09T02:47:01.903Z,101010.78
2023-05-09T02:49:03.728Z,100998.72
2023-05-09T02:51:05.765Z,100999.66
2023-05-09T02:53:07.537Z,100997.91
2023-05-09T02:55:10.057Z,100995.19
2023-05-09T02:57:12.095Z,100992.72
2023-05-09T02:59:14.061Z,100994.47
2023-05-09T03:01:15.862Z,101001.41
2023-05-09T03:03:18.306Z,100997.06
2023-05-09T03:05:20.708Z,100997.13
2023-05-09T03:07:24.864Z,100998.00
2023-05-09T03:09:31.796Z,101010.88
2023-05-09T03:11:34.042Z,101008.38
2023-05-09T03:13:40.151Z,101007.50
2023-05-09T03:15:42.146Z,101008.44
2023-05-09T03:17:44.114Z,101008.44
2023-05-09T03:19:46.204Z,101010.16
2023-05-09T03:21:48.060Z,101008.44
2023-05-09T03:23:49.938Z,101016.22
2023-05-09T03:25:51.713Z,101015.34
2023-05-09T03:27:53.550Z,101016.22
2023-05-09T03:29:55.608Z,101019.59
2023-05-09T03:31:57.578Z,101028.25
2023-05-09T03:33:59.435Z,101014.34
2023-05-09T03:36:01.440Z,101011.84
2023-05-09T03:38:03.395Z,101010.09
2023-05-09T03:40:06.870Z,101010.16
2023-05-09T03:42:08.637Z,101002.38
2023-05-09T03:44:12.578Z,101004.06
2023-05-09T03:46:14.520Z,101003.25
2023-05-09T03:48:19.034Z,101007.56
2023-05-09T03:50:20.954Z,100998.00
2023-05-09T03:52:22.852Z,100996.28
2023-05-09T03:54:27.236Z,101003.19
2023-05-09T03:56:29.201Z,100996.28
2023-05-09T03:58:31.458Z,100998.88
2023-05-09T04:00:33.447Z,100991.97
2023-05-09T04:02:35.262Z,100991.94
2023-05-09T04:04:37.155Z,100995.41
2023-05-09T04:06:39.843Z,100993.66
2023-05-09T04:08:42.218Z,100989.34
2023-05-09T04:10:44.682Z,100989.31
2023-05-09T04:12:46.459Z,100986.75
2023-05-09T04:14:49.009Z,100978.13
2023-05-09T04:16:51.100Z,100982.47
2023-05-09T04:18:52.860Z,100975.53
2023-05-09T04:20:54.603Z,100981.59
2023-05-09T04:22:56.509Z,100980.72
2023-05-09T04:24:58.244Z,100971.16
2023-05-09T04:27:00.007Z,100975.47
2023-05-09T04:29:01.852Z,100966.84
2023-05-09T04:31:03.616Z,100974.59
2023-05-09T04:33:05.708Z,100974.59
2023-05-09T04:35:08.445Z,100973.75
2023-05-09T04:37:11.170Z,100984.88
2023-05-09T04:39:12.948Z,100977.19
2023-05-09T04:41:14.729Z,100980.66
2023-05-09T04:43:16.412Z,100980.66
2023-05-09T04:45:18.163Z,100971.94
2023-05-09T04:47:19.836Z,100980.59
2023-05-09T04:49:21.587Z,100974.50
2023-05-09T04:51:23.402Z,100962.44
2023-05-09T04:53:25.094Z,100967.63
2023-05-09T04:55:30.819Z,100961.59
2023-05-09T04:57:37.578Z,100968.47
2023-05-09T04:59:39.369Z,100961.56
2023-05-09T05:01:41.424Z,100976.28
2023-05-09T05:03:43.202Z,100972.81
2023-05-09T05:05:45.047Z,100971.97
2023-05-09T05:07:47.042Z,100978.91
2023-05-09T05:09:48.756Z,100965.97
2023-05-09T05:12:00.777Z,100957.31
2023-05-09T05:14:04.316Z,100957.34
2023-05-09T05:16:06.126Z,100957.34
2023-05-09T05:18:07.849Z,100959.06
2023-05-09T05:20:12.329Z,100947.84
2023-05-09T05:22:14.005Z,100940.06
2023-05-09T05:24:15.797Z,100947.84
2023-05-09T05:26:17.503Z,100943.53
2023-05-09T05:28:19.280Z,100944.44
2023-05-09T05:30:21.151Z,100951.22
2023-05-09T05:32:25.935Z,100947.84
2023-05-09T05:34:27.698Z,100949.53
2023-05-09T05:36:29.580Z,100959.06
2023-05-09T05:38:31.349Z,100952.09
2023-05-09T05:40:33.088Z,100946.81
2023-05-09T05:42:35.053Z,100949.47
2023-05-09T05:44:36.816Z,100940.88
2023-05-09T05:46:38.605Z,100938.28
2023-05-09T05:48:40.345Z,100942.56
2023-05-09T05:50:42.030Z,100934.81
2023-05-09T05:52:43.729Z,100947.84
2023-05-09T05:54:45.549Z,100936.59
2023-05-09T05:56:47.401Z,100936.47
2023-05-09T05:58:49.482Z,100933.16
2023-05-09T06:00:52.828Z,100930.50
2023-05-09T06:02:57.154Z,100921.84
2023-05-09T06:04:58.965Z,100920.91
2023-05-09T06:07:00.769Z,100929.63
2023-05-09T06:09:02.570Z,100933.03
2023-05-09T06:11:06.008Z,100932.09
2023-05-09T06:13:07.771Z,100941.63
2023-05-09T06:15:10.039Z,100944.31
2023-05-09T06:17:11.903Z,100944.28
2023-05-09T06:19:13.729Z,100952.09
2023-05-09T06:21:15.514Z,100946.91
2023-05-09T06:23:22.272Z,100962.34
2023-05-09T06:25:24.110Z,100945.97
2023-05-09T06:27:30.748Z,100946.03
2023-05-09T06:29:37.641Z,100949.50
2023-05-09T06:31:41.190Z,100949.41
2023-05-09T06:33:43.144Z,100950.25
2023-05-09T06:35:45.181Z,100951.22
2023-05-09T06:37:48.660Z,100944.28
2023-05-09T06:39:51.113Z,100945.03
2023-05-09T06:41:52.920Z,100943.34
2023-05-09T06:43:54.695Z,100952.09
2023-05-09T06:45:56.704Z,100951.28
2023-05-09T06:47:58.638Z,100947.84
2023-05-09T06:50:00.474Z,100946.16
2023-05-09T06:52:02.486Z,100939.19
2023-05-09T06:54:06.668Z,100951.34
2023-05-09T06:56:08.518Z,100934.81
2023-05-09T06:58:11.260Z,100936.59
2023-05-09T07:00:15.033Z,100936.59
2023-05-09T07:02:16.895Z,100934.88
2023-05-09T07:04:18.814Z,100927.97
2023-05-09T07:06:20.886Z,100924.56
2023-05-09T07:08:22.746Z,100922.00
2023-05-09T07:10:24.662Z,100921.13
2023-05-09T07:12:31.733Z,100925.50
2023-05-09T07:14:33.533Z,100916.03
2023-05-09T07:16:37.436Z,100912.59
2023-05-09T07:18:40.204Z,100916.97
2023-05-09T07:20:42.214Z,100912.63
2023-05-09T07:22:44.790Z,100920.47
2023-05-09T07:24:46.785Z,100921.31
2023-05-09T07:26:48.711Z,100921.28
2023-05-09T07:28:50.814Z,100916.13
2023-05-09T07:30:52.714Z,100915.34
2023-05-09T07:32:54.749Z,100920.53
2023-05-09T07:34:59.104Z,100919.66
2023-05-09T07:37:01.138Z,100917.97
2023-05-09T07:39:04.517Z,100925.75
2023-05-09T07:41:06.879Z,100919.69
2023-05-09T07:43:08.882Z,100923.19
2023-05-09T07:45:11.282Z,100920.59
2023-05-09T07:47:13.148Z,100925.78
2023-05-09T07:49:15.124Z,100929.25
2023-05-09T07:51:17.123Z,100923.16
2023-05-09T07:53:19.462Z,100924.94
2023-05-09T07:55:21.517Z,100925.81
2023-05-09T07:57:23.495Z,100927.53
2023-05-09T07:59:25.462Z,100927.56
2023-05-09T08:01:32.850Z,100925.84
2023-05-09T08:03:34.919Z,100924.09
2023-05-09T08:05:39.951Z,100925.88
2023-05-09T08:07:42.112Z,100918.06
2023-05-09T08:09:44.357Z,100924.13
2023-05-09T08:11:46.208Z,100916.34
2023-05-09T08:13:48.421Z,100925.00
2023-05-09T08:15:50.552Z,100918.94
2023-05-09T08:17:52.557Z,100922.41
2023-05-09T08:19:54.865Z,100917.19
2023-05-09T08:21:56.800Z,100925.88
2023-05-09T08:23:58.708Z,100917.22
2023-05-09T08:26:01.463Z,100921.53
2023-05-09T08:28:03.625Z,100917.22
2023-05-09T08:30:06.764Z,100925.84
2023-05-09T08:32:08.995Z,100924.97
2023-05-09T08:34:11.085Z,100918.94
2023-05-09T08:36:15.947Z,100917.22
2023-05-09T08:38:18.277Z,100920.69
2023-05-09T08:40:20.857Z,100919.78
2023-05-09T08:42:26.064Z,100915.50
2023-05-09T08:44:31.483Z,100916.38
2023-05-09T08:46:39.280Z,100914.63
2023-05-09T08:48:43.600Z,100923.28
2023-05-09T08:50:45.852Z,100924.13
2023-05-09T08:52:48.270Z,100925.88
2023-05-09T08:54:51.644Z,100919.81
2023-05-09T08:56:56.500Z,100920.69
2023-05-09T08:58:59.298Z,100930.22
2023-05-09T09:01:06.930Z,100927.59
2023-05-09T09:03:09.037Z,100932.78
2023-05-09T09:05:34.217Z,100935.38
2023-05-09T09:07:39.993Z,100932.78
2023-05-09T09:09:46.383Z,100922.41
2023-05-09T09:11:48.986Z,100926.75
2023-05-09T09:13:54.128Z,100925.00
2023-05-09T09:15:59.300Z,100917.19
2023-05-09T09:18:10.251Z,100910.28
2023-05-09T09:20:14.976Z,100914.63
2023-05-09T09:22:20.058Z,100907.69
2023-05-09T09:24:23.757Z,100910.31
2023-05-09T09:26:29.421Z,100906.00
2023-05-09T09:28:31.387Z,100909.44
2023-05-09T09:30:33.652Z,100910.31
2023-05-09T09:32:36.508Z,100905.09
2023-05-09T09:34:38.838Z,100900.78
2023-05-09T09:36:40.833Z,100903.38
2023-05-09T09:38:44.212Z,100895.53
2023-05-09T09:40:52.927Z,100895.53
2023-05-09T09:42:54.753Z,100893.78
2023-05-09T09:44:57.994Z,100892.94
2023-05-09T09:47:00.140Z,100885.97
2023-05-09T09:49:01.989Z,100886.88
2023-05-09T09:51:11.965Z,100886.00
2023-05-09T09:53:13.857Z,100885.16
2023-05-09T09:55:16.193Z,100879.09
2023-05-09T09:57:38.389Z,100893.00
2023-05-09T09:59:40.363Z,100882.53
2023-05-09T10:01:54.540Z,100879.06
2023-05-09T10:03:56.505Z,100872.91
2023-05-09T10:06:04.191Z,100872.84
2023-05-09T10:08:07.838Z,100870.34
2023-05-09T10:10:10.237Z,100870.28
2023-05-09T10:12:12.329Z,100888.41
2023-05-09T10:14:14.408Z,100879.75
2023-05-09T10:16:17.053Z,100871.09
2023-05-09T10:18:21.828Z,100865.00
2023-05-09T10:20:25.390Z,100861.41
2023-05-09T10:22:30.186Z,100870.00
2023-05-09T10:24:43.386Z,100852.50
2023-05-09T10:26:49.852Z,100853.31
2023-05-09T10:28:56.116Z,100846.38
2023-05-09T10:31:08.600Z,100851.53
2023-05-09T10:33:13.545Z,100847.34
2023-05-09T10:35:17.814Z,100841.91
2023-05-09T10:37:22.474Z,100843.47
2023-05-09T10:39:25.249Z,100835.56
2023-05-09T10:41:32.323Z,100831.03
2023-05-09T10:43:36.605Z,100824.88
2023-05-09T10:45:42.906Z,100824.00
2023-05-09T10:47:46.572Z,100828.34
2023-05-09T10:49:50.196Z,100823.19
2023-05-09T10:51:52.905Z,100818.75
2023-05-09T10:53:56.363Z,100823.97
2023-05-09T10:56:00.475Z,100818.75
2023-05-09T10:58:20.172Z,100822.06
2023-05-09T11:00:25.588Z,100823.78
2023-05-09T11:02:31.155Z,100820.25
2023-05-09T11:04:33.219Z,100813.22
2023-05-09T11:06:44.092Z,100815.03
2023-05-09T11:08:46.871Z,100816.03
2023-05-09T11:10:49.320Z,100819.53
2023-05-09T11:13:01.098Z,100816.81
2023-05-09T11:15:08.053Z,100815.00
2023-05-09T11:17:13.109Z,100808.81
2023-05-09T11:19:37.136Z,100820.19
2023-05-09T11:22:01.489Z,100817.47
2023-05-09T11:24:16.904Z,100815.91
2023-05-09T11:26:23.709Z,100815.66
2023-05-09T11:28:28.968Z,100805.28
2023-05-09T11:30:41.826Z,100804.94
2023-05-09T11:32:45.583Z,100798.84
2023-05-09T11:34:47.707Z,100819.06
2023-05-09T11:36:49.548Z,100812.22
2023-05-09T11:39:02.713Z,100800.09
2023-05-09T11:41:05.305Z,100796.84
2023-05-09T11:43:07.886Z,100794.41
2023-05-09T11:45:11.180Z,100794.50
2023-05-09T11:47:13.264Z,100791.59
2023-05-09T11:49:19.749Z,100795.94
2023-05-09T11:51:22.151Z,100789.88
2023-05-09T11:53:24.493Z,100790.88
2023-05-09T11:55:31.480Z,100785.94
2023-05-09T11:57:39.003Z,100785.06
2023-05-09T11:59:41.571Z,100791.34
2023-05-09T12:01:43.380Z,100787.78
2023-05-09T12:03:45.552Z,100788.66
2023-05-09T12:05:49.275Z,100791.22
2023-05-09T12:07:52.678Z,100783.25
2023-05-09T12:09:54.803Z,100789.22
2023-05-09T12:11:56.684Z,100790.94
2023-05-09T12:13:58.582Z,100789.91
2023-05-09T12:16:01.968Z,100785.44
2023-05-09T12:18:06.170Z,100778.44
2023-05-09T12:20:09.153Z,100775.63
2023-05-09T12:22:11.386Z,100776.38
2023-05-09T12:24:13.364Z,100765.72
2023-05-09T12:26:16.013Z,100775.25
2023-05-09T12:28:18.483Z,100768.97
2023-05-09T12:30:21.133Z,100764.47
2023-05-09T12:32:23.594Z,100768.44
2023-05-09T12:34:25.641Z,100761.44
2023-05-09T12:36:27.542Z,100754.16
2023-05-09T12:38:29.384Z,100755.69
2023-05-09T12:40:31.265Z,100753.81
2023-05-09T12:42:34.342Z,100745.63
2023-05-09T12:44:36.843Z,100749.81
2023-05-09T12:46:38.921Z,100744.44
2023-05-09T12:48:40.890Z,100737.41
2023-05-09T12:50:47.666Z,100748.66
2023-05-09T12:53:02.751Z,100737.00
2023-05-09T12:55:09.938Z,100737.03
2023-05-09T12:57:23.073Z,100729.28
2023-05-09T12:59:31.361Z,100722.22
2023-05-09T13:01:39.722Z,100727.19
2023-05-09T13:03:42.792Z,100722.38
2023-05-09T13:05:54.645Z,100720.78
2023-05-09T13:07:57.641Z,100718.50
2023-05-09T13:10:01.228Z,100719.94
2023-05-09T13:12:04.462Z,100714.66
2023-05-09T13:14:06.368Z,100718.47
2023-05-09T13:16:10.507Z,100714.19
2023-05-09T13:18:13.836Z,100708.53
2023-05-09T13:20:17.327Z,100714.22
2023-05-09T13:22:19.847Z,100714.72
2023-05-09T13:24:21.722Z,100711.00
2023-05-09T13:26:23.680Z,100709.06
2023-05-09T13:28:25.765Z,100700.94
2023-05-09T13:30:27.802Z,100695.47
2023-05-09T13:32:29.993Z,100696.06
2023-05-09T13:34:31.986Z,100702.66
2023-05-09T13:36:34.134Z,100703.56
2023-05-09T13:38:39.180Z,100701.28
2023-05-09T13:40:41.133Z,100698.34
2023-05-09T13:42:44.079Z,100693.00
2023-05-09T13:44:46.228Z,100696.06
2023-05-09T13:46:48.283Z,100693.63
2023-05-09T13:48:50.336Z,100689.75
2023-05-09T13:50:52.382Z,100694.28
2023-05-09T13:52:54.702Z,100685.81
2023-05-09T13:54:59.941Z,100686.00
2023-05-09T13:57:04.342Z,100689.13
2023-05-09T13:59:07.044Z,100690.59
2023-05-09T14:01:09.106Z,100695.22
2023-05-09T14:03:11.035Z,100682.34
2023-05-09T14:05:13.048Z,100681.59
2023-05-09T14:07:16.871Z,100678.88
2023-05-09T14:09:19.469Z,100681.44
2023-05-09T14:11:21.567Z,100674.19
2023-05-09T14:13:23.497Z,100683.19
2023-05-09T14:15:25.491Z,100670.03
2023-05-09T14:17:31.522Z,100668.34
2023-05-09T14:19:34.464Z,100674.94
2023-05-09T14:21:39.984Z,100669.81
2023-05-09T14:23:42.428Z,100670.97
2023-05-09T14:25:45.015Z,100672.00
2023-05-09T14:27:49.199Z,100671.34
2023-05-09T14:29:51.393Z,100672.13
2023-05-09T14:31:53.908Z,100666.66
2023-05-09T14:33:56.379Z,100663.25
2023-05-09T14:35:58.356Z,100669.69
2023-05-09T14:38:01.421Z,100669.59
2023-05-09T14:40:05.821Z,100669.19
2023-05-09T14:42:10.515Z,100653.97
2023-05-09T14:44:12.433Z,100655.34
2023-05-09T14:46:14.366Z,100663.50
2023-05-09T14:48:17.117Z,100646.84
2023-05-09T14:50:21.967Z,100646.88
2023-05-09T14:52:23.917Z,100651.28
2023-05-09T14:54:26.033Z,100647.78
2023-05-09T14:56:29.243Z,100645.09
2023-05-09T15:00:35.121Z,100636.94
2023-05-09T15:02:37.571Z,100625.19
2023-05-09T15:04:41.538Z,100644.00
2023-05-09T15:06:43.553Z,100625.22
2023-05-09T15:08:45.504Z,100628.75
2023-05-09T15:10:48.489Z,100630.34
2023-05-09T15:12:50.330Z,100627.66
2023-05-09T15:14:54.243Z,100622.16
2023-05-09T15:16:59.231Z,100620.16
2023-05-09T15:19:01.699Z,100619.09
2023-05-09T15:21:05.131Z,100628.25
2023-05-09T15:23:08.038Z,100624.31
2023-05-09T15:25:10.354Z,100623.03
2023-05-09T15:27:12.167Z,100633.75
2023-05-09T15:29:14.250Z,100630.34
2023-05-09T15:31:16.352Z,100630.84
2023-05-09T15:33:18.817Z,100636.50
2023-05-09T15:35:21.487Z,100648.72
2023-05-09T15:37:26.167Z,100645.59
2023-05-09T15:39:28.087Z,100646.72
2023-05-09T15:41:35.462Z,100653.84
2023-05-09T15:43:37.386Z,100635.34
2023-05-09T15:45:45.450Z,100634.59
2023-05-09T15:47:47.626Z,100644.38
2023-05-09T15:49:49.784Z,100642.38
2023-05-09T15:51:51.829Z,100643.91
2023-05-09T15:53:53.768Z,100658.19
2023-05-09T15:55:56.887Z,100663.94
2023-05-09T15:57:59.380Z,100672.22
2023-05-09T16:00:01.413Z,100663.03
2023-05-09T16:02:06.821Z,100656.09
2023-05-09T16:04:09.717Z,100663.84
2023-05-09T16:06:13.066Z,100650.09
2023-05-09T16:08:15.143Z,100650.16
2023-05-09T16:10:19.380Z,100638.28
2023-05-09T16:12:21.314Z,100658.03
2023-05-09T16:14:23.589Z,100652.88
2023-05-09T16:16:26.305Z,100662.81
2023-05-09T16:18:29.143Z,100663.16
2023-05-09T16:20:31.109Z,100650.72
2023-05-09T16:22:33.092Z,100656.94
2023-05-09T16:24:35.457Z,100644.78
2023-05-09T16:26:37.541Z,100656.38
2023-05-09T16:28:40.427Z,100649.56
2023-05-09T16:30:43.296Z,100653.13
2023-05-09T16:32:45.581Z,100646.19
2023-05-09T16:34:47.752Z,100634.75
2023-05-09T16:36:49.933Z,100632.94
2023-05-09T16:38:51.763Z,100626.06
2023-05-09T16:40:54.529Z,100630.38
2023-05-09T16:42:56.811Z,100629.56
2023-05-09T16:44:58.743Z,100639.84
2023-05-09T16:47:01.246Z,100633.09
2023-05-09T16:49:03.515Z,100640.06
2023-05-09T16:51:05.778Z,100634.09
2023-05-09T16:53:08.385Z,100638.69
2023-05-09T16:55:13.681Z,100647.41
2023-05-09T16:57:17.276Z,100637.75
2023-05-09T16:59:20.237Z,100639.53
2023-05-09T17:01:22.270Z,100626.53
2023-05-09T17:03:24.338Z,100630.03
2023-05-09T17:05:26.748Z,100620.66
2023-05-09T17:07:31.157Z,100623.31
2023-05-09T17:09:38.575Z,100626.63
2023-05-09T17:11:40.574Z,100629.97
2023-05-09T17:13:44.338Z,100632.47
2023-05-09T17:15:46.535Z,100639.41
2023-05-09T17:17:48.956Z,100665.44
2023-05-09T17:19:51.362Z,100676.75
2023-05-09T17:21:56.276Z,100684.47
2023-05-09T17:23:58.601Z,100694.00
2023-05-09T17:26:00.776Z,100700.00
2023-05-09T17:28:03.340Z,100700.84
2023-05-09T17:30:06.486Z,100706.84
2023-05-09T17:32:09.037Z,100704.31
2023-05-09T17:34:11.948Z,100709.50
2023-05-09T17:36:13.854Z,100705.94
2023-05-09T17:38:18.885Z,100711.31
2023-05-09T17:40:21.690Z,100716.56
2023-05-09T17:42:23.932Z,100718.31
2023-05-09T17:44:26.094Z,100725.31
2023-05-09T17:46:28.296Z,100725.31
2023-05-09T17:48:30.914Z,100732.28
2023-05-09T17:50:33.725Z,100728.88
2023-05-09T17:52:36.162Z,100734.19
2023-05-09T17:54:38.007Z,100736.78
2023-05-09T17:56:40.294Z,100731.56
2023-05-09T17:58:45.617Z,100743.78
2023-05-09T18:00:48.268Z,100742.09
2023-05-09T18:02:51.314Z,100743.03
2023-05-09T18:04:54.131Z,100733.47
2023-05-09T18:06:56.112Z,100728.28
2023-05-09T18:08:58.879Z,100733.44
2023-05-09T18:11:00.878Z,100730.03
2023-05-09T18:13:03.709Z,100741.41
2023-05-09T18:15:07.208Z,100730.06
2023-05-09T18:17:09.178Z,100736.16
2023-05-09T18:19:11.727Z,100739.59
2023-05-09T18:21:14.154Z,100734.44
2023-05-09T18:23:16.313Z,100743.09
2023-05-09T18:25:18.589Z,100744.84
2023-05-09T18:27:20.439Z,100745.69
2023-05-09T18:29:23.411Z,100750.91
2023-05-09T18:31:25.238Z,100756.09
2023-05-09T18:33:30.758Z,100754.47
2023-05-09T18:35:32.734Z,100763.06
2023-05-09T18:37:39.337Z,100763.94
2023-05-09T18:39:41.181Z,100764.84
2023-05-09T18:41:47.359Z,100762.25
2023-05-09T18:43:49.252Z,100776.97
2023-05-09T18:45:52.026Z,100779.59
2023-05-09T18:47:53.949Z,100779.56
2023-05-09T18:49:55.713Z,100787.38
2023-05-09T18:51:57.585Z,100796.00
2023-05-09T18:54:02.546Z,100797.78
2023-05-09T18:56:05.630Z,100793.47
2023-05-09T18:58:07.412Z,100788.28
2023-05-09T19:00:13.515Z,100789.16
2023-05-09T19:02:15.373Z,100792.59
2023-05-09T19:04:20.423Z,100783.94
2023-05-09T19:06:22.374Z,100776.16
2023-05-09T19:08:26.210Z,100772.72
2023-05-09T19:10:27.974Z,100766.59
2023-05-09T19:12:30.059Z,100769.19
2023-05-09T19:14:32.348Z,100766.56
2023-05-09T19:16:34.656Z,100771.72
2023-05-09T19:18:36.544Z,100772.56
2023-05-09T19:20:38.363Z,100777.72
2023-05-09T19:22:43.949Z,100780.31
2023-05-09T19:24:45.966Z,100780.31
2023-05-09T19:26:47.782Z,100786.38
2023-05-09T19:28:49.621Z,100778.56
2023-05-09T19:30:52.270Z,100775.00
2023-05-09T19:32:54.221Z,100778.47
2023-05-09T19:34:59.192Z,100787.19
2023-05-09T19:37:01.227Z,100786.31
2023-05-09T19:39:09.028Z,100779.41
2023-05-09T19:41:11.504Z,100781.16
2023-05-09T19:43:14.313Z,100781.09
2023-05-09T19:45:16.554Z,100782.84
2023-05-09T19:47:20.645Z,100786.31
2023-05-09T19:49:23.857Z,100784.59
2023-05-09T19:51:26.284Z,100786.31
2023-05-09T19:53:28.374Z,100785.47
2023-05-09T19:55:31.566Z,100780.31
2023-05-09T19:57:38.928Z,100782.88
2023-05-09T19:59:40.758Z,100784.59
2023-05-09T20:01:42.950Z,100777.72
2023-05-09T20:03:46.984Z,100773.41
2023-05-09T20:05:49.230Z,100775.13
2023-05-09T20:07:51.226Z,100782.91
2023-05-09T20:09:53.641Z,100777.72
2023-05-09T20:11:58.219Z,100781.19
2023-05-09T20:14:00.865Z,100782.06
2023-05-09T20:16:04.348Z,100789.00
2023-05-09T20:18:10.589Z,100782.97
2023-05-09T20:20:14.291Z,100784.69
2023-05-09T20:22:17.288Z,100785.56
2023-05-09T20:24:21.150Z,100781.25
2023-05-09T20:26:25.301Z,100783.81
2023-05-09T20:28:28.670Z,100784.69
2023-05-09T20:30:31.433Z,100773.47
2023-05-09T20:32:35.663Z,100771.66
2023-05-09T20:34:37.486Z,100769.94
2023-05-09T20:36:39.421Z,100770.00
2023-05-09T20:38:41.195Z,100762.22
2023-05-09T20:40:44.220Z,100764.72
2023-05-09T20:42:49.084Z,100763.03
2023-05-09T20:44:51.646Z,100763.03
2023-05-09T20:46:55.851Z,100770.81
2023-05-09T20:48:57.682Z,100774.28
2023-05-09T20:50:59.445Z,100769.09
2023-05-09T20:53:01.406Z,100772.53
2023-05-09T20:55:03.530Z,100763.91
2023-05-09T20:57:05.342Z,100760.44
2023-05-09T20:59:07.155Z,100763.03
2023-05-09T21:01:09.166Z,100759.56
2023-05-09T21:03:11.203Z,100758.66
2023-05-09T21:05:13.126Z,100763.00
2023-05-09T21:07:19.235Z,100762.09
2023-05-09T21:09:21.155Z,100759.56
2023-05-09T21:11:23.371Z,100764.69
2023-05-09T21:13:25.461Z,100764.72
2023-05-09T21:15:27.538Z,100769.06
2023-05-09T21:17:34.507Z,100780.31
2023-05-09T21:19:36.467Z,100773.38
2023-05-09T21:21:41.635Z,100768.22
2023-05-09T21:23:43.450Z,100770.81
2023-05-09T21:25:45.297Z,100776.00
2023-05-09T21:27:47.083Z,100779.41
2023-05-09T21:29:49.522Z,100782.91
2023-05-09T21:31:51.346Z,100782.00
2023-05-09T21:33:53.142Z,100783.78
2023-05-09T21:35:54.937Z,100789.81
2023-05-09T21:37:56.762Z,100797.59
2023-05-09T21:39:58.465Z,100791.50
2023-05-09T21:42:00.264Z,100782.81
2023-05-09T21:44:02.207Z,100794.06
2023-05-09T21:46:05.666Z,100796.66
2023-05-09T21:48:07.617Z,100799.22
2023-05-09T21:50:09.987Z,100794.91
2023-05-09T21:52:11.736Z,100802.69
2023-05-09T21:54:13.483Z,100806.13
2023-05-09T21:56:15.332Z,100807.81
2023-05-09T21:58:17.101Z,100815.59
2023-05-09T22:00:19.924Z,100813.81
2023-05-09T22:02:21.727Z,100811.25
2023-05-09T22:04:23.465Z,100811.28
2023-05-09T22:06:25.162Z,100817.31
2023-05-09T22:08:26.938Z,100820.75
2023-05-09T22:10:28.936Z,100816.44
2023-05-09T22:12:30.732Z,100807.81
2023-05-09T22:14:37.136Z,100820.72
2023-05-09T22:16:44.070Z,100807.75
2023-05-09T22:18:45.925Z,100819.00
2023-05-09T22:20:47.809Z,100808.63
2023-05-09T22:22:49.757Z,100808.63
2023-05-09T22:24:51.574Z,100808.63
2023-05-09T22:26:53.326Z,100809.53
2023-05-09T22:28:55.068Z,100810.41
2023-05-09T22:30:57.100Z,100812.13
2023-05-09T22:33:00.265Z,100800.84
2023-05-09T22:35:02.410Z,100810.28
2023-05-09T22:37:05.174Z,100812.94
2023-05-09T22:39:06.911Z,100811.97
2023-05-09T22:41:09.220Z,100813.75
2023-05-09T22:43:11.752Z,100817.00
2023-05-09T22:45:13.989Z,100825.63
2023-05-09T22:47:16.256Z,100819.53
2023-05-09T22:49:17.983Z,100816.94
2023-05-09T22:51:19.759Z,100812.72
2023-05-09T22:53:21.520Z,100817.81
2023-05-09T22:55:23.421Z,100813.53
2023-05-09T22:57:25.185Z,100815.28
2023-05-09T22:59:27.196Z,100816.94
2023-05-09T23:01:33.440Z,100817.88
2023-05-09T23:03:35.224Z,100820.41
2023-05-09T23:05:39.695Z,100824.72
2023-05-09T23:07:41.648Z,100826.44
2023-05-09T23:09:43.473Z,100829.88
2023-05-09T23:11:45.269Z,100823.00
2023-05-09T23:13:47.037Z,100820.41
2023-05-09T23:15:48.747Z,100824.78
2023-05-09T23:17:50.467Z,100831.63
2023-05-09T23:19:52.353Z,100828.84
2023-05-09T23:21:54.353Z,100825.38
2023-05-09T23:23:56.214Z,100821.94
2023-05-09T23:25:57.887Z,100824.53
2023-05-09T23:27:59.613Z,100829.75
2023-05-09T23:30:01.365Z,100828.78